sensor_id;sensor_type;location;lat;lon;timestamp;P1;durP1;ratioP1;P2;durP2;ratioP2
25511;SDS011;13414;44.534;18.700;2023-04-09T00:00:20;99.53;;;66.57;;
25511;SDS011;13414;44.534;18.700;2023-04-09T00:02:49;99.13;;;66.45;;
25511;SDS011;13414;44.534;18.700;2023-04-09T00:05:17;107.78;;;67.32;;
25511;SDS011;13414;44.534;18.700;2023-04-09T00:07:44;114.38;;;71.63;;
25511;SDS011;13414;44.534;18.700;2023-04-09T00:10:11;111.45;;;70.95;;
25511;SDS011;13414;44.534;18.700;2023-04-09T00:12:39;116.88;;;75.40;;
25511;SDS011;13414;44.534;18.700;2023-04-09T00:15:07;110.80;;;72.63;;
25511;SDS011;13414;44.534;18.700;2023-04-09T00:17:35;114.82;;;74.85;;
25511;SDS011;13414;44.534;18.700;2023-04-09T00:20:04;115.53;;;74.72;;
25511;SDS011;13414;44.534;18.700;2023-04-09T00:22:33;113.75;;;73.55;;
25511;SDS011;13414;44.534;18.700;2023-04-09T00:25:01;113.68;;;74.88;;
25511;SDS011;13414;44.534;18.700;2023-04-09T00:27:28;121.55;;;78.53;;
25511;SDS011;13414;44.534;18.700;2023-04-09T00:29:55;118.22;;;78.10;;
25511;SDS011;13414;44.534;18.700;2023-04-09T00:32:23;123.85;;;80.07;;
25511;SDS011;13414;44.534;18.700;2023-04-09T00:34:50;123.53;;;83.15;;
25511;SDS011;13414;44.534;18.700;2023-04-09T00:37:19;122.82;;;79.18;;
25511;SDS011;13414;44.534;18.700;2023-04-09T00:39:47;132.50;;;86.47;;
25511;SDS011;13414;44.534;18.700;2023-04-09T00:42:15;146.38;;;97.38;;
25511;SDS011;13414;44.534;18.700;2023-04-09T00:44:43;149.07;;;98.78;;
25511;SDS011;13414;44.534;18.700;2023-04-09T00:47:10;151.55;;;100.88;;
25511;SDS011;13414;44.534;18.700;2023-04-09T00:49:38;164.82;;;108.93;;
25511;SDS011;13414;44.534;18.700;2023-04-09T00:52:05;167.45;;;109.20;;
25511;SDS011;13414;44.534;18.700;2023-04-09T00:54:35;166.48;;;110.10;;
25511;SDS011;13414;44.534;18.700;2023-04-09T00:57:02;162.80;;;112.07;;
25511;SDS011;13414;44.534;18.700;2023-04-09T00:59:30;170.95;;;116.85;;
25511;SDS011;13414;44.534;18.700;2023-04-09T01:01:58;167.57;;;117.53;;
25511;SDS011;13414;44.534;18.700;2023-04-09T01:04:25;164.82;;;114.00;;
25511;SDS011;13414;44.534;18.700;2023-04-09T01:06:54;159.30;;;110.53;;
25511;SDS011;13414;44.534;18.700;2023-04-09T01:09:29;139.93;;;99.57;;
25511;SDS011;13414;44.534;18.700;2023-04-09T01:14:53;150.55;;;104.53;;
25511;SDS011;13414;44.534;18.700;2023-04-09T01:17:29;147.02;;;102.47;;
25511;SDS011;13414;44.534;18.700;2023-04-09T01:20:00;142.05;;;94.50;;
25511;SDS011;13414;44.534;18.700;2023-04-09T01:22:32;158.38;;;100.15;;
25511;SDS011;13414;44.534;18.700;2023-04-09T01:25:19;119.15;;;77.68;;
25511;SDS011;13414;44.534;18.700;2023-04-09T01:28:08;108.78;;;71.65;;
25511;SDS011;13414;44.534;18.700;2023-04-09T01:30:44;105.95;;;72.60;;
25511;SDS011;13414;44.534;18.700;2023-04-09T01:33:15;98.18;;;64.38;;
25511;SDS011;13414;44.534;18.700;2023-04-09T01:35:45;113.05;;;70.00;;
25511;SDS011;13414;44.534;18.700;2023-04-09T01:38:15;110.97;;;72.90;;
25511;SDS011;13414;44.534;18.700;2023-04-09T01:40:45;118.72;;;75.70;;
25511;SDS011;13414;44.534;18.700;2023-04-09T01:43:15;136.07;;;85.70;;
25511;SDS011;13414;44.534;18.700;2023-04-09T01:45:44;137.45;;;86.90;;
25511;SDS011;13414;44.534;18.700;2023-04-09T01:48:12;125.90;;;83.22;;
25511;SDS011;13414;44.534;18.700;2023-04-09T01:50:41;134.30;;;83.10;;
25511;SDS011;13414;44.534;18.700;2023-04-09T01:53:09;114.72;;;75.25;;
25511;SDS011;13414;44.534;18.700;2023-04-09T01:55:37;105.03;;;70.97;;
25511;SDS011;13414;44.534;18.700;2023-04-09T01:58:04;100.00;;;65.30;;
25511;SDS011;13414;44.534;18.700;2023-04-09T02:00:34;99.68;;;65.78;;
25511;SDS011;13414;44.534;18.700;2023-04-09T02:03:05;100.97;;;66.15;;
25511;SDS011;13414;44.534;18.700;2023-04-09T02:05:37;98.28;;;63.20;;
25511;SDS011;13414;44.534;18.700;2023-04-09T02:08:10;104.30;;;67.97;;
25511;SDS011;13414;44.534;18.700;2023-04-09T02:10:42;97.00;;;64.78;;
25511;SDS011;13414;44.534;18.700;2023-04-09T02:13:17;94.82;;;63.13;;
25511;SDS011;13414;44.534;18.700;2023-04-09T02:15:47;91.07;;;61.80;;
25511;SDS011;13414;44.534;18.700;2023-04-09T02:18:20;93.32;;;60.45;;
25511;SDS011;13414;44.534;18.700;2023-04-09T02:20:50;99.35;;;65.93;;
25511;SDS011;13414;44.534;18.700;2023-04-09T02:23:18;106.60;;;72.90;;
25511;SDS011;13414;44.534;18.700;2023-04-09T02:25:46;113.55;;;77.90;;
25511;SDS011;13414;44.534;18.700;2023-04-09T02:28:14;114.20;;;75.40;;
25511;SDS011;13414;44.534;18.700;2023-04-09T02:30:41;111.90;;;71.20;;
25511;SDS011;13414;44.534;18.700;2023-04-09T02:33:10;107.03;;;71.82;;
25511;SDS011;13414;44.534;18.700;2023-04-09T02:35:37;100.50;;;69.80;;
25511;SDS011;13414;44.534;18.700;2023-04-09T02:38:05;102.30;;;69.55;;
25511;SDS011;13414;44.534;18.700;2023-04-09T02:40:38;104.85;;;72.75;;
25511;SDS011;13414;44.534;18.700;2023-04-09T02:43:06;100.70;;;68.25;;
25511;SDS011;13414;44.534;18.700;2023-04-09T02:45:34;100.40;;;67.80;;
25511;SDS011;13414;44.534;18.700;2023-04-09T02:48:02;100.13;;;67.60;;
25511;SDS011;13414;44.534;18.700;2023-04-09T02:50:35;100.28;;;68.63;;
25511;SDS011;13414;44.534;18.700;2023-04-09T02:53:03;105.10;;;70.05;;
25511;SDS011;13414;44.534;18.700;2023-04-09T02:55:30;115.45;;;79.75;;
25511;SDS011;13414;44.534;18.700;2023-04-09T02:57:58;107.85;;;73.80;;
25511;SDS011;13414;44.534;18.700;2023-04-09T03:00:25;103.88;;;70.90;;
25511;SDS011;13414;44.534;18.700;2023-04-09T03:02:54;104.05;;;72.10;;
25511;SDS011;13414;44.534;18.700;2023-04-09T03:05:22;107.00;;;72.28;;
25511;SDS011;13414;44.534;18.700;2023-04-09T03:07:52;100.60;;;67.32;;
25511;SDS011;13414;44.534;18.700;2023-04-09T03:10:20;95.63;;;67.30;;
25511;SDS011;13414;44.534;18.700;2023-04-09T03:12:47;99.63;;;68.05;;
25511;SDS011;13414;44.534;18.700;2023-04-09T03:15:15;98.18;;;67.50;;
25511;SDS011;13414;44.534;18.700;2023-04-09T03:17:42;99.53;;;68.10;;
25511;SDS011;13414;44.534;18.700;2023-04-09T03:20:10;104.80;;;69.07;;
25511;SDS011;13414;44.534;18.700;2023-04-09T03:22:37;98.68;;;66.07;;
25511;SDS011;13414;44.534;18.700;2023-04-09T03:25:21;105.25;;;67.55;;
25511;SDS011;13414;44.534;18.700;2023-04-09T03:27:52;100.75;;;68.85;;
25511;SDS011;13414;44.534;18.700;2023-04-09T03:30:29;104.07;;;69.50;;
25511;SDS011;13414;44.534;18.700;2023-04-09T03:32:58;96.45;;;66.30;;
25511;SDS011;13414;44.534;18.700;2023-04-09T03:35:28;98.40;;;67.03;;
25511;SDS011;13414;44.534;18.700;2023-04-09T03:37:58;98.55;;;68.65;;
25511;SDS011;13414;44.534;18.700;2023-04-09T03:40:27;100.45;;;69.78;;
25511;SDS011;13414;44.534;18.700;2023-04-09T03:42:55;107.13;;;72.35;;
25511;SDS011;13414;44.534;18.700;2023-04-09T03:45:22;111.90;;;73.45;;
25511;SDS011;13414;44.534;18.700;2023-04-09T03:47:53;113.28;;;74.28;;
25511;SDS011;13414;44.534;18.700;2023-04-09T03:50:22;113.07;;;74.63;;
25511;SDS011;13414;44.534;18.700;2023-04-09T03:52:53;110.53;;;73.50;;
25511;SDS011;13414;44.534;18.700;2023-04-09T03:55:21;105.72;;;75.43;;
25511;SDS011;13414;44.534;18.700;2023-04-09T03:57:51;106.22;;;78.47;;
25511;SDS011;13414;44.534;18.700;2023-04-09T04:00:25;112.80;;;80.15;;
25511;SDS011;13414;44.534;18.700;2023-04-09T04:03:12;106.20;;;77.72;;
25511;SDS011;13414;44.534;18.700;2023-04-09T04:06:05;105.45;;;76.65;;
25511;SDS011;13414;44.534;18.700;2023-04-09T04:08:55;97.85;;;71.68;;
25511;SDS011;13414;44.534;18.700;2023-04-09T04:11:32;99.63;;;75.15;;
25511;SDS011;13414;44.534;18.700;2023-04-09T04:14:01;113.43;;;77.35;;
25511;SDS011;13414;44.534;18.700;2023-04-09T04:16:28;112.18;;;77.28;;
25511;SDS011;13414;44.534;18.700;2023-04-09T04:18:57;128.00;;;86.97;;
25511;SDS011;13414;44.534;18.700;2023-04-09T04:21:26;112.43;;;76.03;;
25511;SDS011;13414;44.534;18.700;2023-04-09T04:23:58;108.13;;;69.78;;
25511;SDS011;13414;44.534;18.700;2023-04-09T04:26:28;94.75;;;64.22;;
25511;SDS011;13414;44.534;18.700;2023-04-09T04:28:55;94.03;;;62.60;;
25511;SDS011;13414;44.534;18.700;2023-04-09T04:31:43;92.22;;;61.35;;
25511;SDS011;13414;44.534;18.700;2023-04-09T04:34:11;92.40;;;63.00;;
25511;SDS011;13414;44.534;18.700;2023-04-09T04:36:42;90.97;;;60.95;;
25511;SDS011;13414;44.534;18.700;2023-04-09T04:39:09;86.63;;;59.40;;
25511;SDS011;13414;44.534;18.700;2023-04-09T04:41:51;78.90;;;55.90;;
25511;SDS011;13414;44.534;18.700;2023-04-09T04:44:22;87.13;;;58.53;;
25511;SDS011;13414;44.534;18.700;2023-04-09T04:46:58;91.65;;;63.17;;
25511;SDS011;13414;44.534;18.700;2023-04-09T04:49:26;94.13;;;65.38;;
25511;SDS011;13414;44.534;18.700;2023-04-09T04:51:54;108.50;;;70.75;;
25511;SDS011;13414;44.534;18.700;2023-04-09T04:54:22;120.10;;;78.50;;
25511;SDS011;13414;44.534;18.700;2023-04-09T04:56:53;139.35;;;90.00;;
25511;SDS011;13414;44.534;18.700;2023-04-09T04:59:39;148.60;;;94.70;;
25511;SDS011;13414;44.534;18.700;2023-04-09T05:02:10;147.35;;;92.60;;
25511;SDS011;13414;44.534;18.700;2023-04-09T05:04:51;123.00;;;79.57;;
25511;SDS011;13414;44.534;18.700;2023-04-09T05:07:26;109.40;;;70.90;;
25511;SDS011;13414;44.534;18.700;2023-04-09T05:09:55;105.57;;;69.63;;
25511;SDS011;13414;44.534;18.700;2023-04-09T05:12:23;98.05;;;63.45;;
25511;SDS011;13414;44.534;18.700;2023-04-09T05:14:52;92.55;;;58.50;;
25511;SDS011;13414;44.534;18.700;2023-04-09T05:17:20;85.65;;;56.67;;
25511;SDS011;13414;44.534;18.700;2023-04-09T05:19:52;99.75;;;66.00;;
25511;SDS011;13414;44.534;18.700;2023-04-09T05:22:29;104.30;;;67.07;;
25511;SDS011;13414;44.534;18.700;2023-04-09T05:24:57;97.32;;;64.03;;
25511;SDS011;13414;44.534;18.700;2023-04-09T05:27:25;99.68;;;66.25;;
25511;SDS011;13414;44.534;18.700;2023-04-09T05:29:57;98.78;;;64.85;;
25511;SDS011;13414;44.534;18.700;2023-04-09T05:32:27;93.78;;;63.60;;
25511;SDS011;13414;44.534;18.700;2023-04-09T05:34:55;85.90;;;58.20;;
25511;SDS011;13414;44.534;18.700;2023-04-09T05:37:25;91.60;;;60.47;;
25511;SDS011;13414;44.534;18.700;2023-04-09T05:39:52;86.25;;;59.47;;
25511;SDS011;13414;44.534;18.700;2023-04-09T05:42:20;90.70;;;61.85;;
25511;SDS011;13414;44.534;18.700;2023-04-09T05:44:58;84.07;;;59.30;;
25511;SDS011;13414;44.534;18.700;2023-04-09T05:47:28;87.65;;;60.10;;
25511;SDS011;13414;44.534;18.700;2023-04-09T05:50:03;88.85;;;58.88;;
25511;SDS011;13414;44.534;18.700;2023-04-09T05:52:31;84.07;;;59.50;;
25511;SDS011;13414;44.534;18.700;2023-04-09T05:54:59;87.95;;;60.50;;
25511;SDS011;13414;44.534;18.700;2023-04-09T05:57:38;86.97;;;61.63;;
25511;SDS011;13414;44.534;18.700;2023-04-09T06:00:06;85.05;;;61.53;;
25511;SDS011;13414;44.534;18.700;2023-04-09T06:02:47;90.15;;;64.13;;
25511;SDS011;13414;44.534;18.700;2023-04-09T06:05:14;87.80;;;62.47;;
25511;SDS011;13414;44.534;18.700;2023-04-09T06:07:42;90.95;;;63.05;;
25511;SDS011;13414;44.534;18.700;2023-04-09T06:10:09;96.50;;;63.78;;
25511;SDS011;13414;44.534;18.700;2023-04-09T06:12:37;97.68;;;63.25;;
25511;SDS011;13414;44.534;18.700;2023-04-09T06:15:05;91.45;;;64.93;;
25511;SDS011;13414;44.534;18.700;2023-04-09T06:17:33;92.18;;;66.35;;
25511;SDS011;13414;44.534;18.700;2023-04-09T06:20:02;97.10;;;67.00;;
25511;SDS011;13414;44.534;18.700;2023-04-09T06:22:30;92.93;;;66.45;;
25511;SDS011;13414;44.534;18.700;2023-04-09T06:24:58;90.18;;;64.75;;
25511;SDS011;13414;44.534;18.700;2023-04-09T06:27:25;97.65;;;66.25;;
25511;SDS011;13414;44.534;18.700;2023-04-09T06:29:53;91.55;;;65.20;;
25511;SDS011;13414;44.534;18.700;2023-04-09T06:32:20;92.55;;;65.63;;
25511;SDS011;13414;44.534;18.700;2023-04-09T06:34:48;90.82;;;66.22;;
25511;SDS011;13414;44.534;18.700;2023-04-09T06:37:17;91.93;;;65.40;;
25511;SDS011;13414;44.534;18.700;2023-04-09T06:39:44;94.57;;;64.60;;
25511;SDS011;13414;44.534;18.700;2023-04-09T06:42:11;94.80;;;64.72;;
25511;SDS011;13414;44.534;18.700;2023-04-09T06:44:50;82.57;;;62.10;;
25511;SDS011;13414;44.534;18.700;2023-04-09T06:47:17;90.35;;;66.32;;
25511;SDS011;13414;44.534;18.700;2023-04-09T06:49:45;94.20;;;66.45;;
25511;SDS011;13414;44.534;18.700;2023-04-09T06:52:12;90.75;;;65.70;;
25511;SDS011;13414;44.534;18.700;2023-04-09T06:54:41;89.13;;;65.15;;
25511;SDS011;13414;44.534;18.700;2023-04-09T06:57:10;86.03;;;64.03;;
25511;SDS011;13414;44.534;18.700;2023-04-09T06:59:37;90.55;;;63.13;;
25511;SDS011;13414;44.534;18.700;2023-04-09T07:02:05;90.97;;;65.97;;
25511;SDS011;13414;44.534;18.700;2023-04-09T07:04:33;93.75;;;66.47;;
25511;SDS011;13414;44.534;18.700;2023-04-09T07:07:01;86.35;;;64.88;;
25511;SDS011;13414;44.534;18.700;2023-04-09T07:09:28;88.35;;;64.00;;
25511;SDS011;13414;44.534;18.700;2023-04-09T07:11:57;86.05;;;65.15;;
25511;SDS011;13414;44.534;18.700;2023-04-09T07:14:24;85.60;;;62.42;;
25511;SDS011;13414;44.534;18.700;2023-04-09T07:16:52;86.28;;;64.05;;
25511;SDS011;13414;44.534;18.700;2023-04-09T07:19:19;87.40;;;65.28;;
25511;SDS011;13414;44.534;18.700;2023-04-09T07:21:47;93.50;;;66.88;;
25511;SDS011;13414;44.534;18.700;2023-04-09T07:24:15;87.55;;;62.40;;
25511;SDS011;13414;44.534;18.700;2023-04-09T07:26:42;89.20;;;65.93;;
25511;SDS011;13414;44.534;18.700;2023-04-09T07:29:11;91.05;;;65.75;;
25511;SDS011;13414;44.534;18.700;2023-04-09T07:31:39;94.25;;;67.82;;
25511;SDS011;13414;44.534;18.700;2023-04-09T07:34:06;94.90;;;72.60;;
25511;SDS011;13414;44.534;18.700;2023-04-09T07:36:34;101.95;;;76.30;;
25511;SDS011;13414;44.534;18.700;2023-04-09T07:39:01;104.90;;;79.20;;
25511;SDS011;13414;44.534;18.700;2023-04-09T07:41:29;102.10;;;76.20;;
25511;SDS011;13414;44.534;18.700;2023-04-09T07:43:56;106.05;;;78.30;;
25511;SDS011;13414;44.534;18.700;2023-04-09T07:46:25;114.63;;;83.60;;
25511;SDS011;13414;44.534;18.700;2023-04-09T07:48:52;104.15;;;78.45;;
25511;SDS011;13414;44.534;18.700;2023-04-09T07:51:20;105.05;;;81.25;;
25511;SDS011;13414;44.534;18.700;2023-04-09T07:53:47;107.75;;;80.07;;
25511;SDS011;13414;44.534;18.700;2023-04-09T07:56:15;107.25;;;78.90;;
25511;SDS011;13414;44.534;18.700;2023-04-09T07:58:42;109.45;;;77.97;;
25511;SDS011;13414;44.534;18.700;2023-04-09T08:01:10;102.50;;;75.80;;
25511;SDS011;13414;44.534;18.700;2023-04-09T08:03:40;98.10;;;75.38;;
25511;SDS011;13414;44.534;18.700;2023-04-09T08:06:07;95.43;;;74.20;;
25511;SDS011;13414;44.534;18.700;2023-04-09T08:08:35;90.00;;;69.30;;
25511;SDS011;13414;44.534;18.700;2023-04-09T08:11:02;80.20;;;62.75;;
25511;SDS011;13414;44.534;18.700;2023-04-09T08:13:31;83.13;;;62.15;;
25511;SDS011;13414;44.534;18.700;2023-04-09T08:15:59;79.60;;;63.30;;
25511;SDS011;13414;44.534;18.700;2023-04-09T08:18:28;80.22;;;61.03;;
25511;SDS011;13414;44.534;18.700;2023-04-09T08:20:57;89.70;;;65.38;;
25511;SDS011;13414;44.534;18.700;2023-04-09T08:23:24;85.75;;;64.57;;
25511;SDS011;13414;44.534;18.700;2023-04-09T08:25:52;83.93;;;62.05;;
25511;SDS011;13414;44.534;18.700;2023-04-09T08:28:19;79.40;;;62.35;;
25511;SDS011;13414;44.534;18.700;2023-04-09T08:30:47;80.13;;;61.55;;
25511;SDS011;13414;44.534;18.700;2023-04-09T08:33:15;92.30;;;68.15;;
25511;SDS011;13414;44.534;18.700;2023-04-09T08:35:42;89.82;;;68.00;;
25511;SDS011;13414;44.534;18.700;2023-04-09T08:38:11;89.20;;;68.13;;
25511;SDS011;13414;44.534;18.700;2023-04-09T08:40:39;90.75;;;69.43;;
25511;SDS011;13414;44.534;18.700;2023-04-09T08:43:07;90.80;;;70.25;;
25511;SDS011;13414;44.534;18.700;2023-04-09T08:45:37;74.63;;;58.13;;
25511;SDS011;13414;44.534;18.700;2023-04-09T08:48:07;91.95;;;69.57;;
25511;SDS011;13414;44.534;18.700;2023-04-09T08:50:36;70.55;;;53.67;;
25511;SDS011;13414;44.534;18.700;2023-04-09T08:53:03;62.13;;;47.03;;
25511;SDS011;13414;44.534;18.700;2023-04-09T08:55:33;59.80;;;46.15;;
25511;SDS011;13414;44.534;18.700;2023-04-09T08:58:03;58.60;;;41.50;;
25511;SDS011;13414;44.534;18.700;2023-04-09T09:00:31;55.45;;;44.28;;
25511;SDS011;13414;44.534;18.700;2023-04-09T09:03:02;52.80;;;42.40;;
25511;SDS011;13414;44.534;18.700;2023-04-09T09:05:34;51.30;;;42.72;;
25511;SDS011;13414;44.534;18.700;2023-04-09T09:08:03;52.97;;;43.40;;
25511;SDS011;13414;44.534;18.700;2023-04-09T09:10:40;45.70;;;38.40;;
25511;SDS011;13414;44.534;18.700;2023-04-09T09:13:18;49.95;;;41.22;;
25511;SDS011;13414;44.534;18.700;2023-04-09T09:15:47;46.42;;;38.40;;
25511;SDS011;13414;44.534;18.700;2023-04-09T09:18:19;48.22;;;39.42;;
25511;SDS011;13414;44.534;18.700;2023-04-09T09:20:47;52.17;;;40.58;;
25511;SDS011;13414;44.534;18.700;2023-04-09T09:23:15;51.42;;;41.70;;
25511;SDS011;13414;44.534;18.700;2023-04-09T09:26:01;47.50;;;38.58;;
25511;SDS011;13414;44.534;18.700;2023-04-09T09:28:37;49.03;;;40.67;;
25511;SDS011;13414;44.534;18.700;2023-04-09T09:31:08;55.38;;;44.47;;
25511;SDS011;13414;44.534;18.700;2023-04-09T09:33:36;52.13;;;43.17;;
25511;SDS011;13414;44.534;18.700;2023-04-09T09:36:04;44.65;;;38.40;;
25511;SDS011;13414;44.534;18.700;2023-04-09T09:38:33;49.97;;;42.50;;
25511;SDS011;13414;44.534;18.700;2023-04-09T09:41:17;42.20;;;36.53;;
25511;SDS011;13414;44.534;18.700;2023-04-09T09:43:45;46.15;;;37.53;;
25511;SDS011;13414;44.534;18.700;2023-04-09T09:46:13;47.25;;;38.38;;
25511;SDS011;13414;44.534;18.700;2023-04-09T09:48:42;44.50;;;37.63;;
25511;SDS011;13414;44.534;18.700;2023-04-09T09:51:11;38.47;;;33.55;;
25511;SDS011;13414;44.534;18.700;2023-04-09T09:53:42;42.67;;;34.60;;
25511;SDS011;13414;44.534;18.700;2023-04-09T09:56:13;44.30;;;36.30;;
25511;SDS011;13414;44.534;18.700;2023-04-09T09:58:47;45.03;;;37.50;;
25511;SDS011;13414;44.534;18.700;2023-04-09T10:01:18;45.60;;;36.60;;
25511;SDS011;13414;44.534;18.700;2023-04-09T10:03:48;48.63;;;40.80;;
25511;SDS011;13414;44.534;18.700;2023-04-09T10:06:17;45.47;;;35.38;;
25511;SDS011;13414;44.534;18.700;2023-04-09T10:08:45;46.60;;;36.72;;
25511;SDS011;13414;44.534;18.700;2023-04-09T10:11:15;54.55;;;37.50;;
25511;SDS011;13414;44.534;18.700;2023-04-09T10:13:48;46.88;;;36.33;;
25511;SDS011;13414;44.534;18.700;2023-04-09T10:16:16;49.70;;;40.15;;
25511;SDS011;13414;44.534;18.700;2023-04-09T10:18:44;62.85;;;45.67;;
25511;SDS011;13414;44.534;18.700;2023-04-09T10:21:15;51.95;;;38.05;;
25511;SDS011;13414;44.534;18.700;2023-04-09T10:23:51;54.40;;;39.47;;
25511;SDS011;13414;44.534;18.700;2023-04-09T10:26:19;49.42;;;37.35;;
25511;SDS011;13414;44.534;18.700;2023-04-09T10:29:03;55.03;;;41.58;;
25511;SDS011;13414;44.534;18.700;2023-04-09T10:31:49;47.20;;;35.67;;
25511;SDS011;13414;44.534;18.700;2023-04-09T10:34:20;48.63;;;40.05;;
25511;SDS011;13414;44.534;18.700;2023-04-09T10:36:49;51.40;;;39.70;;
25511;SDS011;13414;44.534;18.700;2023-04-09T10:39:18;55.13;;;42.90;;
25511;SDS011;13414;44.534;18.700;2023-04-09T10:41:47;60.85;;;43.92;;
25511;SDS011;13414;44.534;18.700;2023-04-09T10:44:23;59.22;;;43.08;;
25511;SDS011;13414;44.534;18.700;2023-04-09T10:46:52;59.42;;;45.67;;
25511;SDS011;13414;44.534;18.700;2023-04-09T10:49:20;50.33;;;39.40;;
25511;SDS011;13414;44.534;18.700;2023-04-09T10:51:52;53.88;;;40.20;;
25511;SDS011;13414;44.534;18.700;2023-04-09T10:54:42;59.50;;;44.67;;
25511;SDS011;13414;44.534;18.700;2023-04-09T10:57:14;64.70;;;48.40;;
25511;SDS011;13414;44.534;18.700;2023-04-09T10:59:45;58.85;;;45.38;;
25511;SDS011;13414;44.534;18.700;2023-04-09T11:02:25;57.08;;;41.55;;
25511;SDS011;13414;44.534;18.700;2023-04-09T11:05:11;59.33;;;43.78;;
25511;SDS011;13414;44.534;18.700;2023-04-09T11:07:48;60.33;;;45.25;;
25511;SDS011;13414;44.534;18.700;2023-04-09T11:10:19;62.72;;;46.45;;
25511;SDS011;13414;44.534;18.700;2023-04-09T11:12:47;59.13;;;43.75;;
25511;SDS011;13414;44.534;18.700;2023-04-09T11:15:17;63.65;;;49.00;;
25511;SDS011;13414;44.534;18.700;2023-04-09T11:17:45;62.75;;;47.85;;
25511;SDS011;13414;44.534;18.700;2023-04-09T11:20:14;64.05;;;49.33;;
25511;SDS011;13414;44.534;18.700;2023-04-09T11:22:42;65.30;;;50.75;;
25511;SDS011;13414;44.534;18.700;2023-04-09T11:25:16;66.53;;;50.70;;
25511;SDS011;13414;44.534;18.700;2023-04-09T11:27:44;63.75;;;48.10;;
25511;SDS011;13414;44.534;18.700;2023-04-09T11:30:12;63.15;;;45.05;;
25511;SDS011;13414;44.534;18.700;2023-04-09T11:32:41;58.97;;;44.72;;
25511;SDS011;13414;44.534;18.700;2023-04-09T11:35:10;58.20;;;44.15;;
25511;SDS011;13414;44.534;18.700;2023-04-09T11:37:41;65.25;;;49.20;;
25511;SDS011;13414;44.534;18.700;2023-04-09T11:40:14;62.53;;;49.20;;
25511;SDS011;13414;44.534;18.700;2023-04-09T11:42:45;60.10;;;46.38;;
25511;SDS011;13414;44.534;18.700;2023-04-09T11:45:14;65.95;;;50.35;;
25511;SDS011;13414;44.534;18.700;2023-04-09T11:47:44;59.92;;;47.55;;
25511;SDS011;13414;44.534;18.700;2023-04-09T11:50:13;63.28;;;48.03;;
25511;SDS011;13414;44.534;18.700;2023-04-09T11:52:41;50.97;;;40.08;;
25511;SDS011;13414;44.534;18.700;2023-04-09T11:55:10;58.85;;;46.78;;
25511;SDS011;13414;44.534;18.700;2023-04-09T11:57:39;59.72;;;47.72;;
25511;SDS011;13414;44.534;18.700;2023-04-09T12:00:09;60.72;;;47.00;;
25511;SDS011;13414;44.534;18.700;2023-04-09T12:02:39;63.30;;;46.67;;
25511;SDS011;13414;44.534;18.700;2023-04-09T12:05:10;65.80;;;50.25;;
25511;SDS011;13414;44.534;18.700;2023-04-09T12:07:38;61.83;;;46.35;;
25511;SDS011;13414;44.534;18.700;2023-04-09T12:10:06;61.92;;;49.35;;
25511;SDS011;13414;44.534;18.700;2023-04-09T12:12:39;79.65;;;55.88;;
25511;SDS011;13414;44.534;18.700;2023-04-09T12:15:11;63.15;;;49.22;;
25511;SDS011;13414;44.534;18.700;2023-04-09T12:17:49;60.05;;;46.28;;
25511;SDS011;13414;44.534;18.700;2023-04-09T12:20:30;69.97;;;55.35;;
25511;SDS011;13414;44.534;18.700;2023-04-09T12:22:59;63.08;;;49.80;;
25511;SDS011;13414;44.534;18.700;2023-04-09T12:25:28;66.78;;;54.28;;
25511;SDS011;13414;44.534;18.700;2023-04-09T12:27:56;57.95;;;46.28;;
25511;SDS011;13414;44.534;18.700;2023-04-09T12:30:24;57.08;;;43.55;;
25511;SDS011;13414;44.534;18.700;2023-04-09T12:32:52;57.03;;;46.67;;
25511;SDS011;13414;44.534;18.700;2023-04-09T12:35:20;53.13;;;41.95;;
25511;SDS011;13414;44.534;18.700;2023-04-09T12:37:49;61.03;;;46.72;;
25511;SDS011;13414;44.534;18.700;2023-04-09T12:40:17;56.03;;;42.38;;
25511;SDS011;13414;44.534;18.700;2023-04-09T12:42:45;53.28;;;44.47;;
25511;SDS011;13414;44.534;18.700;2023-04-09T12:45:14;55.15;;;43.60;;
25511;SDS011;13414;44.534;18.700;2023-04-09T12:47:43;53.58;;;43.80;;
25511;SDS011;13414;44.534;18.700;2023-04-09T12:50:11;56.45;;;44.92;;
25511;SDS011;13414;44.534;18.700;2023-04-09T12:52:40;60.85;;;47.90;;
25511;SDS011;13414;44.534;18.700;2023-04-09T12:55:10;61.05;;;50.28;;
25511;SDS011;13414;44.534;18.700;2023-04-09T12:57:38;54.50;;;42.97;;
25511;SDS011;13414;44.534;18.700;2023-04-09T13:00:08;55.08;;;43.47;;
25511;SDS011;13414;44.534;18.700;2023-04-09T13:02:39;55.45;;;45.70;;
25511;SDS011;13414;44.534;18.700;2023-04-09T13:05:07;55.10;;;45.05;;
25511;SDS011;13414;44.534;18.700;2023-04-09T13:07:35;59.30;;;47.47;;
25511;SDS011;13414;44.534;18.700;2023-04-09T13:10:02;52.10;;;42.00;;
25511;SDS011;13414;44.534;18.700;2023-04-09T13:12:32;57.53;;;46.45;;
25511;SDS011;13414;44.534;18.700;2023-04-09T13:15:02;62.35;;;46.67;;
25511;SDS011;13414;44.534;18.700;2023-04-09T13:17:30;53.15;;;43.90;;
25511;SDS011;13414;44.534;18.700;2023-04-09T13:19:58;57.88;;;45.97;;
25511;SDS011;13414;44.534;18.700;2023-04-09T13:22:25;61.15;;;46.95;;
25511;SDS011;13414;44.534;18.700;2023-04-09T13:24:53;55.13;;;46.75;;
25511;SDS011;13414;44.534;18.700;2023-04-09T13:27:20;50.05;;;41.97;;
25511;SDS011;13414;44.534;18.700;2023-04-09T13:29:49;52.35;;;42.05;;
25511;SDS011;13414;44.534;18.700;2023-04-09T13:32:16;50.55;;;39.35;;
25511;SDS011;13414;44.534;18.700;2023-04-09T13:34:46;56.30;;;45.15;;
25511;SDS011;13414;44.534;18.700;2023-04-09T13:37:13;55.65;;;44.53;;
25511;SDS011;13414;44.534;18.700;2023-04-09T13:39:41;43.45;;;36.42;;
25511;SDS011;13414;44.534;18.700;2023-04-09T13:42:09;45.03;;;37.05;;
25511;SDS011;13414;44.534;18.700;2023-04-09T13:44:37;45.15;;;34.70;;
25511;SDS011;13414;44.534;18.700;2023-04-09T13:47:07;40.20;;;33.63;;
25511;SDS011;13414;44.534;18.700;2023-04-09T13:49:37;47.83;;;37.95;;
25511;SDS011;13414;44.534;18.700;2023-04-09T13:52:05;40.17;;;32.70;;
25511;SDS011;13414;44.534;18.700;2023-04-09T13:54:32;48.42;;;36.38;;
25511;SDS011;13414;44.534;18.700;2023-04-09T13:57:00;52.20;;;41.08;;
25511;SDS011;13414;44.534;18.700;2023-04-09T13:59:28;39.42;;;33.05;;
25511;SDS011;13414;44.534;18.700;2023-04-09T14:01:56;43.88;;;34.83;;
25511;SDS011;13414;44.534;18.700;2023-04-09T14:04:25;42.30;;;35.72;;
25511;SDS011;13414;44.534;18.700;2023-04-09T14:06:53;49.17;;;38.67;;
25511;SDS011;13414;44.534;18.700;2023-04-09T14:09:21;48.92;;;39.50;;
25511;SDS011;13414;44.534;18.700;2023-04-09T14:11:49;44.72;;;35.45;;
25511;SDS011;13414;44.534;18.700;2023-04-09T14:14:16;38.72;;;32.58;;
25511;SDS011;13414;44.534;18.700;2023-04-09T14:16:44;45.22;;;35.08;;
25511;SDS011;13414;44.534;18.700;2023-04-09T14:19:12;44.10;;;34.80;;
25511;SDS011;13414;44.534;18.700;2023-04-09T14:21:41;39.38;;;33.10;;